Time;durP1;ratioP1;P1;durP2;ratioP2;P2;SDS_P1;SDS_P2;PMS_P1;PMS_P2;Temp;Humidity;BMP_temperature;BMP_pressure;BME280_temperature;BME280_humidity;BME280_pressure;Samples;Min_cycle;Max_cycle;Signal;HPM_P1;HPM_P2
2021/05/21 00:00:39;;;;;;;1.63;1.07;;;;;;;13.06;72.76;100765.84;5054999;28;20471;-70
2021/05/21 00:03:07;;;;;;;1.13;0.90;;;;;;;13.07;72.65;100760.06;5055061;28;20450;-69
2021/05/21 00:05:33;;;;;;;1.13;1.03;;;;;;;13.11;72.81;100762.97;5054905;28;20482;-70
2021/05/21 00:07:59;;;;;;;1.97;0.97;;;;;;;13.14;72.37;100754.16;5055006;28;20465;-69
2021/05/21 00:10:25;;;;;;;1.23;1.00;;;;;;;13.12;72.68;100748.25;5054895;28;20837;-70
2021/05/21 00:12:51;;;;;;;1.47;1.10;;;;;;;13.13;72.22;100749.84;5054921;28;20521;-69
2021/05/21 00:15:18;;;;;;;1.27;0.80;;;;;;;13.12;72.65;100742.81;5054876;28;20442;-69
2021/05/21 00:17:44;;;;;;;1.40;1.30;;;;;;;13.14;72.74;100737.84;5054779;28;20427;-70
2021/05/21 00:20:12;;;;;;;1.17;0.87;;;;;;;13.12;73.63;100735.44;5053706;28;20490;-69
2021/05/21 00:22:38;;;;;;;1.00;0.90;;;;;;;13.14;73.36;100733.19;5054627;28;20448;-69
2021/05/21 00:25:05;;;;;;;1.13;1.00;;;;;;;13.17;73.34;100731.78;5054672;28;20482;-69
2021/05/21 00:27:31;;;;;;;0.80;0.70;;;;;;;13.20;73.68;100736.59;5054630;28;20450;-69
2021/05/21 00:29:58;;;;;;;0.73;0.67;;;;;;;13.22;74.13;100745.28;5054556;28;20999;-69
2021/05/21 00:32:23;;;;;;;0.90;0.80;;;;;;;13.16;73.98;100753.88;5054593;28;20446;-68
2021/05/21 00:34:49;;;;;;;0.90;0.67;;;;;;;13.10;73.68;100747.75;5054371;28;20443;-68
2021/05/21 00:37:16;;;;;;;1.20;1.10;;;;;;;13.02;73.56;100743.09;5054408;28;20538;-68
2021/05/21 00:39:42;;;;;;;2.57;1.27;;;;;;;13.06;73.79;100714.97;5053930;28;20470;-69
2021/05/21 00:42:09;;;;;;;0.60;0.60;;;;;;;13.09;75.17;100711.59;5054321;28;20453;-69
2021/05/21 00:44:35;;;;;;;0.90;0.90;;;;;;;13.12;76.12;100715.63;5054183;28;20501;-69
2021/05/21 00:47:01;;;;;;;1.70;1.10;;;;;;;13.08;76.59;100698.31;5054250;28;20469;-69
2021/05/21 00:49:27;;;;;;;0.67;0.63;;;;;;;13.07;77.01;100696.72;5054118;28;20458;-69
2021/05/21 00:51:53;;;;;;;1.20;0.97;;;;;;;13.02;77.25;100694.16;5054064;28;21034;-69
2021/05/21 00:54:20;;;;;;;0.77;0.60;;;;;;;13.01;77.25;100689.81;5054059;28;20449;-68
2021/05/21 00:56:47;;;;;;;1.00;0.90;;;;;;;12.99;77.41;100683.91;5053092;28;20465;-69
2021/05/21 00:59:16;;;;;;;1.57;1.30;;;;;;;12.96;78.25;100682.59;5054000;28;20462;-69
2021/05/21 01:01:42;;;;;;;0.80;0.80;;;;;;;12.90;78.63;100674.91;5053919;28;20449;-69
2021/05/21 01:04:08;;;;;;;0.97;0.87;;;;;;;12.83;77.28;100665.28;5053803;28;20489;-68
2021/05/21 01:06:34;;;;;;;2.13;1.17;;;;;;;12.78;76.42;100667.34;5053879;28;20446;-68
2021/05/21 01:09:00;;;;;;;2.13;1.33;;;;;;;12.68;75.96;100668.41;5053757;28;20466;-68
2021/05/21 01:11:27;;;;;;;1.50;0.70;;;;;;;12.64;76.67;100656.56;5053559;28;21014;-68
2021/05/21 01:13:53;;;;;;;2.00;1.13;;;;;;;12.64;78.11;100651.13;5053381;28;20446;-68
2021/05/21 01:16:20;;;;;;;2.13;1.30;;;;;;;12.61;79.25;100636.25;5052637;28;20449;-69
2021/05/21 01:18:46;;;;;;;2.80;0.80;;;;;;;12.59;80.42;100626.81;5053617;28;20458;-69
2021/05/21 01:21:13;;;;;;;1.27;1.00;;;;;;;12.53;80.53;100622.66;5053666;28;20465;-70
2021/05/21 01:23:39;;;;;;;1.20;1.07;;;;;;;12.48;80.70;100622.75;5053512;28;20446;-68
2021/05/21 01:26:05;;;;;;;1.67;1.37;;;;;;;12.50;80.21;100612.41;5053543;28;20453;-68
2021/05/21 01:28:31;;;;;;;1.83;1.13;;;;;;;12.47;80.40;100621.97;5053386;28;20484;-68
2021/05/21 01:30:57;;;;;;;1.00;0.97;;;;;;;12.43;80.92;100620.19;5053273;28;20450;-68
2021/05/21 01:33:23;;;;;;;0.83;0.80;;;;;;;12.41;80.69;100615.06;5053435;28;20442;-68
2021/05/21 01:35:51;;;;;;;3.60;1.60;;;;;;;12.35;81.08;100610.88;5053395;28;20573;-68
2021/05/21 01:38:18;;;;;;;6.27;1.00;;;;;;;12.29;79.48;100610.22;5053181;28;20446;-69
2021/05/21 01:40:45;;;;;;;1.07;0.90;;;;;;;12.16;78.45;100600.22;5053257;28;20442;-69
2021/05/21 01:43:12;;;;;;;2.27;1.07;;;;;;;12.10;78.47;100601.47;5053303;28;20442;-67
2021/05/21 01:45:38;;;;;;;1.53;1.43;;;;;;;12.11;78.73;100597.66;5053218;28;20568;-67
2021/05/21 01:48:05;;;;;;;1.20;1.10;;;;;;;12.10;78.77;100596.84;5053286;28;20515;-67
2021/05/21 01:50:32;;;;;;;1.67;1.23;;;;;;;12.18;79.49;100600.75;5052854;28;20532;-68
2021/05/21 01:52:58;;;;;;;1.13;0.70;;;;;;;12.17;78.93;100596.41;5053164;28;20442;-68
2021/05/21 01:55:25;;;;;;;0.93;0.90;;;;;;;12.24;80.05;100594.06;5053192;28;20910;-67
2021/05/21 01:57:51;;;;;;;1.73;1.10;;;;;;;12.20;80.74;100587.63;5053149;28;20442;-68
2021/05/21 02:00:17;;;;;;;1.20;0.87;;;;;;;12.26;81.10;100580.97;5053024;28;20515;-68
2021/05/21 02:02:43;;;;;;;1.13;0.93;;;;;;;12.28;81.36;100573.31;5053118;28;20446;-68
2021/05/21 02:05:10;;;;;;;1.37;1.27;;;;;;;12.35;81.13;100567.41;5052944;28;20555;-68
2021/05/21 02:07:37;;;;;;;1.83;1.50;;;;;;;12.39;81.58;100557.53;5053059;28;20451;-68
2021/05/21 02:10:05;;;;;;;0.70;0.70;;;;;;;12.46;80.32;100557.88;5052879;28;20458;-68
2021/05/21 02:12:33;;;;;;;1.47;1.37;;;;;;;12.50;80.87;100552.63;5052810;28;20445;-67
2021/05/21 02:15:05;;;;;;;3.50;1.17;;;;;;;12.56;80.81;100552.16;5052913;28;20453;-68
2021/05/21 02:17:31;;;;;;;1.30;1.20;;;;;;;12.58;80.98;100549.94;5053016;28;20431;-67
2021/05/21 02:19:58;;;;;;;1.30;0.80;;;;;;;12.62;81.19;100541.97;5052833;28;20557;-68
2021/05/21 02:22:26;;;;;;;1.80;1.43;;;;;;;12.63;81.76;100535.41;5052927;28;20446;-67
2021/05/21 02:24:54;;;;;;;1.90;1.63;;;;;;;12.63;81.32;100533.47;5052246;28;20497;-68
2021/05/21 02:27:20;;;;;;;1.13;1.03;;;;;;;12.65;80.91;100533.16;5052819;28;20459;-68
2021/05/21 02:29:47;;;;;;;1.90;1.17;;;;;;;12.67;81.02;100530.94;5052681;28;20474;-68
2021/05/21 02:32:13;;;;;;;0.90;0.83;;;;;;;12.70;80.25;100524.06;5052762;28;20446;-67
2021/05/21 02:34:39;;;;;;;1.53;1.00;;;;;;;12.71;80.13;100520.25;5052433;28;20483;-68
2021/05/21 02:37:05;;;;;;;2.10;1.33;;;;;;;12.69;80.04;100520.53;5052817;28;20446;-68
2021/05/21 02:39:31;;;;;;;1.30;1.17;;;;;;;12.68;80.13;100518.94;5052356;28;20478;-68
2021/05/21 02:41:57;;;;;;;1.00;0.90;;;;;;;12.64;80.08;100512.53;5052785;28;20446;-68
2021/05/21 02:44:23;;;;;;;1.07;0.97;;;;;;;12.56;79.94;100516.81;5056464;28;20551;-68
2021/05/21 02:46:50;;;;;;;2.20;1.50;;;;;;;12.56;80.61;100507.88;5056265;28;20957;-68
2021/05/21 02:49:20;;;;;;;1.10;1.00;;;;;;;12.48;79.49;100509.44;5056410;28;20466;-67
2021/05/21 02:51:46;;;;;;;1.93;1.23;;;;;;;12.45;81.05;100503.88;5056412;28;20446;-67
2021/05/21 02:54:12;;;;;;;2.63;1.53;;;;;;;12.41;81.67;100500.19;5056036;28;20995;-67
2021/05/21 02:56:38;;;;;;;1.23;0.90;;;;;;;12.37;82.40;100497.28;5056020;28;20442;-68
2021/05/21 02:59:04;;;;;;;1.07;0.87;;;;;;;12.37;82.72;100500.00;5055912;28;20470;-68
2021/05/21 03:01:30;;;;;;;3.20;1.23;;;;;;;12.38;82.80;100496.16;5056233;28;20612;-68
2021/05/21 03:03:57;;;;;;;1.67;1.17;;;;;;;12.38;83.05;100491.53;5056138;28;20995;-67
2021/05/21 03:06:23;;;;;;;2.03;1.10;;;;;;;12.40;82.95;100488.53;5056212;28;20449;-66
2021/05/21 03:08:49;;;;;;;3.20;1.40;;;;;;;12.40;83.05;100487.72;5056148;28;20512;-68
2021/05/21 03:11:15;;;;;;;1.77;1.67;;;;;;;12.41;83.16;100483.88;5056048;28;20441;-67
2021/05/21 03:13:41;;;;;;;2.27;1.27;;;;;;;12.41;83.18;100479.25;5056073;28;20445;-68
2021/05/21 03:16:06;;;;;;;1.10;1.00;;;;;;;12.41;83.09;100481.16;5056134;28;20442;-67
2021/05/21 03:18:32;;;;;;;2.40;0.80;;;;;;;12.36;83.81;100485.63;5055854;28;20449;-67
2021/05/21 03:20:59;;;;;;;1.80;0.90;;;;;;;12.35;83.61;100478.59;5055915;28;20853;-68
2021/05/21 03:23:25;;;;;;;1.57;1.20;;;;;;;12.37;83.59;100472.84;5055861;28;20442;-69
2021/05/21 03:25:51;;;;;;;1.90;1.27;;;;;;;12.32;83.83;100468.34;5055405;28;20589;-67
2021/05/21 03:28:17;;;;;;;1.03;1.00;;;;;;;12.32;83.33;100471.06;5055709;28;20537;-69
2021/05/21 03:30:43;;;;;;;1.30;1.13;;;;;;;12.31;83.74;100458.63;5055408;28;20975;-69
2021/05/21 03:33:09;;;;;;;2.83;1.30;;;;;;;12.31;83.61;100472.19;5055639;28;20528;-68
2021/05/21 03:35:36;;;;;;;1.90;0.83;;;;;;;12.29;82.89;100463.53;5055626;28;20439;-67
2021/05/21 03:38:03;;;;;;;1.23;1.13;;;;;;;12.32;83.24;100462.94;5055579;28;20516;-67
2021/05/21 03:40:29;;;;;;;2.50;1.57;;;;;;;12.30;83.29;100457.00;5055076;28;20522;-68
2021/05/21 03:42:55;;;;;;;2.00;1.40;;;;;;;12.30;83.63;100457.00;5055454;28;20446;-68
2021/05/21 03:45:21;;;;;;;3.70;1.03;;;;;;;12.28;84.13;100461.94;5055353;28;20486;-69
2021/05/21 03:47:47;;;;;;;4.20;0.90;;;;;;;12.30;84.30;100450.75;5055351;28;20852;-69
2021/05/21 03:50:16;;;;;;;2.27;1.33;;;;;;;12.28;85.06;100442.94;5055241;28;20462;-68
2021/05/21 03:52:42;;;;;;;1.87;1.03;;;;;;;12.29;84.96;100452.69;5054959;28;20944;-67
2021/05/21 03:55:10;;;;;;;1.67;0.83;;;;;;;12.32;85.14;100446.63;5054913;28;20445;-67
2021/05/21 03:57:37;;;;;;;2.13;1.57;;;;;;;12.29;85.07;100449.97;5055222;28;20447;-68
2021/05/21 04:00:05;;;;;;;1.27;1.10;;;;;;;12.31;84.34;100450.47;5055093;28;20834;-68
2021/05/21 04:02:31;;;;;;;1.20;0.90;;;;;;;12.32;84.39;100453.97;5055191;28;20438;-67
2021/05/21 04:04:57;;;;;;;2.70;1.30;;;;;;;12.33;84.59;100450.94;5055024;28;20486;-68
2021/05/21 04:07:23;;;;;;;1.23;0.93;;;;;;;12.35;84.19;100437.84;5054798;28;20445;-71
2021/05/21 04:09:49;;;;;;;1.73;1.20;;;;;;;12.35;84.08;100432.41;5054612;28;20467;-67
2021/05/21 04:12:16;;;;;;;3.30;1.47;;;;;;;12.35;84.53;100442.47;5054911;28;20544;-67
2021/05/21 04:14:42;;;;;;;1.07;0.67;;;;;;;12.37;84.32;100426.66;5054869;28;20500;-67
2021/05/21 04:17:08;;;;;;;1.23;1.13;;;;;;;12.37;83.86;100435.59;5054856;28;20446;-66
2021/05/21 04:19:34;;;;;;;1.10;0.70;;;;;;;12.33;84.91;100429.22;5054731;28;20458;-67
2021/05/21 04:22:00;;;;;;;1.17;1.07;;;;;;;12.34;85.11;100425.38;5054801;28;20989;-67
2021/05/21 04:24:26;;;;;;;1.37;1.07;;;;;;;12.30;83.95;100421.69;5054591;28;21034;-68
2021/05/21 04:26:52;;;;;;;1.53;1.00;;;;;;;12.25;83.58;100412.91;5054550;28;20473;-66
2021/05/21 04:29:19;;;;;;;1.47;1.37;;;;;;;12.29;84.13;100409.22;5054487;28;20465;-65
2021/05/21 04:31:45;;;;;;;1.13;0.83;;;;;;;12.33;84.07;100409.41;5054143;28;20998;-67
2021/05/21 04:34:11;;;;;;;1.13;0.80;;;;;;;12.40;83.59;100403.50;5054477;28;20449;-66
2021/05/21 04:36:38;;;;;;;1.63;0.97;;;;;;;12.40;83.23;100401.59;5054191;28;20988;-72
2021/05/21 04:39:04;;;;;;;1.47;1.00;;;;;;;12.48;83.57;100400.78;5054167;28;20569;-66
2021/05/21 04:41:30;;;;;;;2.30;1.07;;;;;;;12.55;84.35;100397.59;5082544;22;21550;-79
2021/05/21 04:43:56;;;;;;;2.73;1.27;;;;;;;12.59;84.26;100393.94;5076970;28;20483;-78
2021/05/21 04:46:23;;;;;;;1.70;1.03;;;;;;;12.72;82.88;100392.19;5078959;28;20550;-78
2021/05/21 04:48:49;;;;;;;0.97;0.80;;;;;;;12.78;82.16;100376.50;5097639;22;20484;-63
2021/05/21 04:51:15;;;;;;;1.37;1.10;;;;;;;12.82;82.23;100383.69;5073949;28;20478;-64
2021/05/21 04:53:41;;;;;;;1.70;1.20;;;;;;;12.86;82.04;100387.38;5073646;28;20445;-64
2021/05/21 04:56:08;;;;;;;1.73;1.60;;;;;;;12.94;81.74;100383.06;5073976;28;20437;-62
2021/05/21 04:58:35;;;;;;;1.83;1.20;;;;;;;13.00;81.09;100370.09;5073848;28;20495;-63
2021/05/21 05:01:01;;;;;;;1.43;0.80;;;;;;;13.07;81.31;100363.03;5073904;28;20448;-64
2021/05/21 05:03:30;;;;;;;1.23;1.13;;;;;;;13.14;80.94;100354.38;5073822;28;20883;-65
2021/05/21 05:05:56;;;;;;;1.03;0.80;;;;;;;13.19;80.51;100356.91;5073239;28;20481;-64
2021/05/21 05:08:22;;;;;;;1.60;1.20;;;;;;;13.25;79.92;100352.94;5073434;28;20463;-63
2021/05/21 05:10:49;;;;;;;2.67;1.50;;;;;;;13.30;79.64;100357.41;5073709;28;20524;-63
2021/05/21 05:13:15;;;;;;;1.60;1.20;;;;;;;13.34;79.60;100336.59;5073513;28;20465;-63
2021/05/21 05:15:41;;;;;;;1.23;0.93;;;;;;;13.40;80.00;100345.38;5073642;28;20433;-61
2021/05/21 05:18:07;;;;;;;1.47;0.90;;;;;;;13.40;78.34;100340.72;5073458;28;20452;-61
2021/05/21 05:20:35;;;;;;;2.40;1.20;;;;;;;13.38;79.05;100343.00;5073471;28;20813;-62
2021/05/21 05:23:01;;;;;;;1.57;1.07;;;;;;;13.37;79.60;100341.41;5073329;28;20462;-61
2021/05/21 05:25:28;;;;;;;1.13;1.00;;;;;;;13.44;79.00;100324.56;5073281;28;20515;-62
2021/05/21 05:27:55;;;;;;;1.40;0.77;;;;;;;13.52;78.57;100323.72;5073336;28;20445;-61
2021/05/21 05:30:21;;;;;;;1.37;0.90;;;;;;;13.58;78.06;100316.97;5073338;28;20445;-61
2021/05/21 05:32:47;;;;;;;2.60;1.10;;;;;;;13.66;77.72;100307.16;5073264;28;20469;-62
2021/05/21 05:35:14;;;;;;;1.07;0.70;;;;;;;13.66;78.54;100310.69;5073228;28;20453;-63
2021/05/21 05:37:41;;;;;;;2.37;1.60;;;;;;;13.73;78.34;100302.81;5073202;28;20456;-63
2021/05/21 05:40:08;;;;;;;1.40;0.90;;;;;;;13.80;77.55;100300.34;5072865;28;20944;-61
2021/05/21 05:42:34;;;;;;;1.53;0.90;;;;;;;13.88;78.24;100302.22;5072988;28;20461;-62
2021/05/21 05:45:00;;;;;;;1.07;0.93;;;;;;;13.96;77.49;100302.50;5073001;28;20481;-62
2021/05/21 05:47:26;;;;;;;1.20;1.00;;;;;;;14.07;76.62;100292.81;5072893;28;20480;-64
2021/05/21 05:49:52;;;;;;;0.80;0.80;;;;;;;14.15;76.53;100289.22;5073088;28;20436;-62
2021/05/21 05:52:18;;;;;;;4.83;1.20;;;;;;;14.24;75.98;100281.78;5072925;28;20461;-65
2021/05/21 05:54:45;;;;;;;1.20;0.87;;;;;;;14.35;75.61;100282.97;5073245;28;20508;-65
2021/05/21 05:57:11;;;;;;;1.10;0.97;;;;;;;14.44;75.44;100284.84;5073132;28;20449;-63
2021/05/21 05:59:38;;;;;;;1.03;0.80;;;;;;;14.61;73.71;100290.97;5073083;28;20943;-63
2021/05/21 06:02:04;;;;;;;1.13;0.90;;;;;;;14.72;73.25;100280.41;5073024;28;20492;-64
2021/05/21 06:04:30;;;;;;;1.10;1.00;;;;;;;14.79;70.69;100285.34;5073170;28;20991;-64
2021/05/21 06:06:56;;;;;;;2.00;1.07;;;;;;;14.88;71.58;100278.66;5073120;28;20441;-64
2021/05/21 06:09:22;;;;;;;2.10;1.30;;;;;;;14.98;71.13;100280.16;5073075;28;20449;-63
2021/05/21 06:11:49;;;;;;;1.23;0.83;;;;;;;15.10;70.57;100271.19;5072818;28;20465;-64
2021/05/21 06:14:15;;;;;;;1.17;0.90;;;;;;;15.27;69.67;100267.44;5072914;28;20452;-64
2021/05/21 06:16:43;;;;;;;0.80;0.63;;;;;;;15.44;69.44;100267.22;5073005;28;20442;-64
2021/05/21 06:19:09;;;;;;;1.00;0.90;;;;;;;15.58;68.70;100251.31;5076718;28;20524;-63
2021/05/21 06:21:35;;;;;;;0.90;0.90;;;;;;;15.62;68.07;100252.19;5076990;28;20994;-63
2021/05/21 06:24:01;;;;;;;0.83;0.73;;;;;;;15.64;67.22;100254.63;5076978;28;20448;-63
2021/05/21 06:26:33;;;;;;;0.80;0.70;;;;;;;15.70;66.82;100245.06;5076724;28;20480;-66
2021/05/21 06:29:00;;;;;;;0.93;0.73;;;;;;;15.81;67.22;100239.94;5076907;28;20461;-67
2021/05/21 06:31:26;;;;;;;0.80;0.67;;;;;;;15.93;66.44;100239.09;5076387;28;20452;-68
2021/05/21 06:33:52;;;;;;;1.30;1.07;;;;;;;16.09;65.40;100231.75;5076770;28;20430;-66
2021/05/21 06:36:18;;;;;;;1.57;0.87;;;;;;;16.22;65.07;100227.84;5076609;28;20441;-66
2021/05/21 06:38:44;;;;;;;0.97;0.80;;;;;;;16.36;64.89;100227.44;5076641;28;20433;-67
2021/05/21 06:41:10;;;;;;;0.83;0.77;;;;;;;16.47;64.84;100223.06;5076430;28;20448;-67
2021/05/21 06:43:36;;;;;;;0.50;0.50;;;;;;;16.52;65.32;100211.09;5075959;28;20821;-66
2021/05/21 06:46:04;;;;;;;1.23;0.70;;;;;;;16.54;64.11;100214.25;5076207;28;20483;-67
2021/05/21 06:48:31;;;;;;;1.50;0.87;;;;;;;16.60;63.29;100208.19;5076090;28;20456;-68
2021/05/21 06:50:58;;;;;;;1.07;0.83;;;;;;;16.56;62.42;100214.72;5076439;28;20452;-67
2021/05/21 06:53:24;;;;;;;0.80;0.60;;;;;;;16.55;61.73;100202.16;5076428;28;20495;-66
2021/05/21 06:55:51;;;;;;;1.17;0.97;;;;;;;16.70;61.93;100195.94;5076346;28;20445;-67
2021/05/21 06:58:18;;;;;;;1.20;0.80;;;;;;;16.82;61.61;100187.69;5076271;28;20441;-66
2021/05/21 07:00:44;;;;;;;2.67;1.10;;;;;;;16.90;58.70;100189.44;5076233;28;20445;-67
2021/05/21 07:03:11;;;;;;;0.87;0.80;;;;;;;17.05;60.54;100189.78;5076207;28;20529;-67
2021/05/21 07:05:38;;;;;;;1.03;0.73;;;;;;;17.13;58.55;100177.84;5076047;28;20554;-67
2021/05/21 07:08:05;;;;;;;1.10;0.97;;;;;;;17.15;58.06;100189.25;5075790;28;20453;-66
2021/05/21 07:10:31;;;;;;;1.00;0.90;;;;;;;17.17;58.76;100186.16;5075799;28;20437;-67
2021/05/21 07:13:06;;;;;;;1.07;0.77;;;;;;;17.13;58.26;100175.94;5075884;28;20511;-66
2021/05/21 07:15:32;;;;;;;0.70;0.60;;;;;;;17.21;58.55;100167.88;5076043;28;20806;-66
2021/05/21 07:17:58;;;;;;;0.70;0.70;;;;;;;17.16;58.34;100174.41;5075592;28;20456;-67
2021/05/21 07:20:25;;;;;;;1.10;1.00;;;;;;;17.26;59.00;100164.84;5076093;28;20480;-65
2021/05/21 07:22:51;;;;;;;0.73;0.70;;;;;;;17.20;59.14;100172.56;5076011;28;20468;-69
2021/05/21 07:25:17;;;;;;;3.80;0.80;;;;;;;17.16;59.37;100155.25;5076228;28;20481;-65
2021/05/21 07:27:43;;;;;;;2.00;0.90;;;;;;;17.04;59.54;100147.13;5075789;28;20972;-66
2021/05/21 07:30:10;;;;;;;3.37;0.80;;;;;;;16.98;58.66;100151.31;5075709;28;20437;-66
2021/05/21 07:32:36;;;;;;;1.20;0.80;;;;;;;16.89;59.82;100144.06;5075625;28;20458;-66
2021/05/21 07:35:02;;;;;;;0.50;0.50;;;;;;;16.82;59.21;100138.44;5075546;28;20438;-66
2021/05/21 07:37:29;;;;;;;0.90;0.70;;;;;;;16.72;61.01;100136.22;5075652;28;20490;-66
2021/05/21 07:39:55;;;;;;;0.97;0.63;;;;;;;16.63;60.71;100130.09;5075583;28;20477;-66
2021/05/21 07:42:21;;;;;;;1.57;0.83;;;;;;;16.45;62.17;100128.88;5075159;28;20983;-66
2021/05/21 07:44:47;;;;;;;0.70;0.70;;;;;;;16.35;62.52;100120.03;5075078;28;20510;-67
2021/05/21 07:47:13;;;;;;;1.00;0.77;;;;;;;16.46;61.42;100116.78;5075158;28;20461;-66
2021/05/21 07:49:39;;;;;;;1.27;0.77;;;;;;;16.50;62.98;100121.19;5075405;28;20426;-67
2021/05/21 07:52:07;;;;;;;0.90;0.70;;;;;;;16.47;61.01;100112.91;5075289;28;20465;-66
2021/05/21 07:54:33;;;;;;;1.63;1.10;;;;;;;16.48;63.07;100098.09;5075337;28;20448;-66
2021/05/21 07:56:59;;;;;;;1.90;0.70;;;;;;;16.52;63.39;100091.56;5075219;28;20446;-65
2021/05/21 07:59:25;;;;;;;3.17;0.83;;;;;;;16.66;61.59;100091.13;5075286;28;20496;-66
2021/05/21 08:01:51;;;;;;;1.10;0.60;;;;;;;16.85;61.96;100072.06;5074833;28;20975;-66
2021/05/21 08:04:17;;;;;;;0.57;0.50;;;;;;;16.98;61.67;100077.44;5075091;28;20492;-67
2021/05/21 08:06:43;;;;;;;0.70;0.60;;;;;;;17.17;60.35;100065.72;5074764;28;20451;-67
2021/05/21 08:09:10;;;;;;;1.47;0.83;;;;;;;17.30;61.39;100064.44;5075208;28;20524;-66
2021/05/21 08:11:37;;;;;;;1.00;0.70;;;;;;;17.40;60.28;100051.00;5075064;28;20458;-66
2021/05/21 08:14:04;;;;;;;0.73;0.73;;;;;;;17.53;59.98;100061.78;5074747;28;20430;-65
2021/05/21 08:16:30;;;;;;;0.67;0.67;;;;;;;17.63;60.21;100048.31;5074823;28;20483;-65
2021/05/21 08:18:57;;;;;;;0.87;0.53;;;;;;;17.72;56.59;100053.56;5074962;28;20449;-65
2021/05/21 08:21:24;;;;;;;1.30;0.87;;;;;;;17.76;58.41;100043.50;5074866;28;20448;-65
2021/05/21 08:23:50;;;;;;;0.70;0.60;;;;;;;17.82;56.45;100050.25;5074767;28;20433;-65
2021/05/21 08:26:16;;;;;;;0.70;0.63;;;;;;;17.93;56.91;100039.50;5074665;28;20489;-65
2021/05/21 08:28:44;;;;;;;0.83;0.83;;;;;;;17.97;57.68;100028.59;5074586;28;20532;-66
2021/05/21 08:31:10;;;;;;;0.70;0.50;;;;;;;18.04;54.93;100028.72;5074465;28;20434;-64
2021/05/21 08:33:43;;;;;;;0.70;0.60;;;;;;;18.21;55.47;100035.69;5074521;28;20450;-66
2021/05/21 08:36:09;;;;;;;0.50;0.50;;;;;;;18.37;53.52;100023.44;5074492;28;20425;-65
2021/05/21 08:38:35;;;;;;;0.90;0.70;;;;;;;18.58;53.29;100025.69;5074344;28;20442;-66
2021/05/21 08:41:01;;;;;;;1.20;0.70;;;;;;;18.76;52.73;100027.94;5073489;28;20464;-64
2021/05/21 08:43:30;;;;;;;0.83;0.70;;;;;;;18.77;51.52;100024.03;5074188;28;20469;-67
2021/05/21 08:45:57;;;;;;;0.90;0.73;;;;;;;18.64;52.70;100013.25;5073879;28;20839;-64
2021/05/21 08:48:23;;;;;;;0.53;0.53;;;;;;;18.68;51.81;100018.78;5073826;28;20487;-66
2021/05/21 08:50:49;;;;;;;0.63;0.60;;;;;;;18.71;52.22;100009.84;5073987;28;20441;-65
2021/05/21 08:53:16;;;;;;;0.93;0.80;;;;;;;18.62;50.88;100009.28;5073606;28;20461;-64
2021/05/21 08:55:42;;;;;;;0.60;0.50;;;;;;;18.60;51.98;100001.44;5073914;28;20433;-65
2021/05/21 08:58:12;;;;;;;0.73;0.60;;;;;;;18.56;51.76;100003.34;5073681;28;20456;-59
2021/05/21 09:00:38;;;;;;;0.97;0.70;;;;;;;18.40;52.95;99984.28;5073980;28;20503;-64
2021/05/21 09:03:19;;;;;;;0.60;0.47;;;;;;;18.38;52.75;99983.06;5073748;28;20472;-62
2021/05/21 09:06:13;;;;;;;0.63;0.63;;;;;;;18.55;52.89;99981.75;5073318;28;20861;-63
2021/05/21 09:08:41;;;;;;;1.07;0.97;;;;;;;18.71;51.84;99990.63;5073490;28;20971;-63
2021/05/21 09:11:24;;;;;;;1.13;0.70;;;;;;;18.96;51.33;99981.97;5060411;28;20458;-63
2021/05/21 09:13:52;;;;;;;0.93;0.40;;;;;;;19.25;49.85;99981.13;5053744;28;20422;-63
2021/05/21 09:16:20;;;;;;;0.70;0.60;;;;;;;19.51;49.82;99985.75;5053671;28;20492;-64
2021/05/21 09:19:08;;;;;;;0.50;0.50;;;;;;;19.64;48.98;99972.56;5053327;28;20964;-64
2021/05/21 09:22:03;;;;;;;0.90;0.50;;;;;;;19.73;47.31;99970.31;5053550;28;20512;-64
2021/05/21 09:24:33;;;;;;;0.90;0.60;;;;;;;19.78;46.99;99969.16;5029552;28;20511;-63
2021/05/21 09:26:59;;;;;;;0.93;0.77;;;;;;;19.75;48.17;99967.97;5053885;28;20441;-63
2021/05/21 09:29:43;;;;;;;0.60;0.50;;;;;;;19.71;47.78;99978.16;5053478;28;20442;-64
2021/05/21 09:32:17;;;;;;;3.37;0.70;;;;;;;19.65;48.74;99982.38;5053554;28;20466;-64
2021/05/21 09:34:47;;;;;;;0.60;0.50;;;;;;;19.51;48.70;99983.00;5053056;28;20441;-64
2021/05/21 09:37:21;;;;;;;0.60;0.60;;;;;;;19.31;49.86;99976.13;5053623;28;20516;-64
2021/05/21 09:40:00;;;;;;;1.13;0.90;;;;;;;19.34;49.04;99981.63;5073090;28;20418;-64
2021/05/21 09:42:27;;;;;;;1.03;0.53;;;;;;;19.15;47.39;99977.09;5073028;28;20457;-63
2021/05/21 09:44:53;;;;;;;0.80;0.70;;;;;;;19.07;48.51;99969.94;5073331;28;20477;-63
2021/05/21 09:47:19;;;;;;;0.70;0.40;;;;;;;19.02;47.36;99969.47;5073304;28;20457;-64
2021/05/21 09:49:46;;;;;;;0.60;0.40;;;;;;;18.94;46.10;99973.28;5073316;28;20475;-64
2021/05/21 09:52:17;;;;;;;0.50;0.30;;;;;;;18.80;45.33;99969.19;5073064;28;20465;-64
2021/05/21 09:54:50;;;;;;;0.60;0.40;;;;;;;18.81;46.59;99957.06;5073258;28;20422;-63
2021/05/21 09:57:16;;;;;;;0.80;0.43;;;;;;;19.03;45.21;99960.06;5073064;28;20441;-63
2021/05/21 09:59:44;;;;;;;0.57;0.50;;;;;;;19.34;44.32;99962.41;5073127;28;20881;-63
2021/05/21 10:02:23;;;;;;;0.50;0.50;;;;;;;19.47;44.47;99940.19;5073008;28;20469;-63
2021/05/21 10:04:51;;;;;;;0.50;0.33;;;;;;;19.41;44.29;99956.22;5072899;28;20421;-64
2021/05/21 10:07:18;;;;;;;0.60;0.40;;;;;;;19.53;44.90;99955.94;5073076;28;20762;-63
2021/05/21 10:09:44;;;;;;;0.50;0.40;;;;;;;19.57;45.24;99950.50;5072940;28;20441;-63
2021/05/21 10:12:11;;;;;;;0.50;0.40;;;;;;;19.48;43.45;99950.00;5072918;28;20457;-63
2021/05/21 10:14:38;;;;;;;0.50;0.40;;;;;;;19.23;43.29;99953.28;5073032;28;20440;-64
2021/05/21 10:17:06;;;;;;;0.50;0.40;;;;;;;19.28;44.00;99952.16;5072603;28;20829;-64
2021/05/21 10:19:33;;;;;;;1.00;0.47;;;;;;;19.41;43.63;99948.75;5072560;28;20861;-63
2021/05/21 10:22:00;;;;;;;1.47;0.60;;;;;;;19.53;43.91;99946.94;5067797;28;20501;-64
2021/05/21 10:24:31;;;;;;;0.53;0.43;;;;;;;19.64;43.05;99942.34;5052837;28;20446;-63
2021/05/21 10:27:01;;;;;;;0.80;0.43;;;;;;;19.81;42.45;99938.97;5052792;28;20769;-64
2021/05/21 10:29:32;;;;;;;0.60;0.43;;;;;;;19.95;41.98;99948.50;5052741;28;20446;-64
2021/05/21 10:32:10;;;;;;;0.50;0.30;;;;;;;19.99;40.81;99952.09;5052669;28;20481;-64
2021/05/21 10:34:41;;;;;;;1.30;0.40;;;;;;;20.04;41.37;99946.22;5052898;28;20449;-64
2021/05/21 10:37:24;;;;;;;0.60;0.47;;;;;;;20.12;41.90;99929.41;5052428;28;20948;-64
2021/05/21 10:40:09;;;;;;;0.83;0.43;;;;;;;20.10;40.96;99941.97;5052838;28;20454;-65
2021/05/21 10:42:39;;;;;;;0.70;0.40;;;;;;;20.32;42.35;99927.19;5054099;28;20510;-63
2021/05/21 10:45:12;;;;;;;0.57;0.50;;;;;;;20.38;41.33;99922.91;5052618;28;20509;-63
2021/05/21 10:47:39;;;;;;;1.13;0.77;;;;;;;20.35;41.13;99922.88;5052374;28;20964;-64
2021/05/21 10:50:17;;;;;;;0.60;0.40;;;;;;;20.46;41.56;99920.22;5052291;28;20949;-64
2021/05/21 10:53:00;;;;;;;0.50;0.40;;;;;;;20.60;42.20;99912.84;5052487;28;20458;-64
2021/05/21 10:55:47;;;;;;;0.80;0.80;;;;;;;20.58;42.82;99911.63;5052673;28;20427;-64
2021/05/21 10:58:18;;;;;;;1.23;0.70;;;;;;;20.46;40.91;99914.69;5052712;28;20483;-66
2021/05/21 11:01:14;;;;;;;2.93;0.70;;;;;;;20.50;41.95;99908.06;5059160;28;20464;-66
2021/05/21 11:04:03;;;;;;;0.57;0.50;;;;;;;20.68;41.35;99901.88;5073686;28;20472;-66
2021/05/21 11:06:30;;;;;;;1.50;0.60;;;;;;;20.69;42.07;99903.44;5071560;28;20485;-65
2021/05/21 11:09:01;;;;;;;1.13;0.73;;;;;;;20.72;42.31;99897.16;5076112;28;20441;-65
2021/05/21 11:11:51;;;;;;;0.50;0.40;;;;;;;20.85;43.31;99890.94;5076190;28;20542;-65
2021/05/21 11:14:27;;;;;;;0.80;0.60;;;;;;;21.47;41.76;99892.69;5076042;28;20433;-66
2021/05/21 11:16:54;;;;;;;0.40;0.30;;;;;;;21.89;40.50;99889.16;5076045;28;20418;-66
2021/05/21 11:19:21;;;;;;;0.97;0.43;;;;;;;22.61;38.87;99892.59;5075937;28;20496;-66
2021/05/21 11:21:50;;;;;;;0.87;0.40;;;;;;;23.26;38.61;99889.56;5075553;28;20979;-66
2021/05/21 11:24:33;;;;;;;0.50;0.47;;;;;;;23.39;36.73;99896.97;5075822;28;20437;-65
2021/05/21 11:27:00;;;;;;;0.80;0.70;;;;;;;23.58;37.58;99898.41;5076146;28;20465;-65
2021/05/21 11:29:26;;;;;;;1.37;0.60;;;;;;;23.47;36.18;99888.63;5075868;28;20469;-67